sensor_id;sensor_type;location;lat;lon;timestamp;temperature;humidity
4820;DHT22;2424;49.696;6.630;2023-05-29T00:02:27;17.00;99.90
4820;DHT22;2424;49.696;6.630;2023-05-29T00:07:48;16.90;99.90
4820;DHT22;2424;49.696;6.630;2023-05-29T00:13:11;16.70;99.90
4820;DHT22;2424;49.696;6.630;2023-05-29T00:18:34;16.70;99.90
4820;DHT22;2424;49.696;6.630;2023-05-29T00:23:56;16.80;99.90
4820;DHT22;2424;49.696;6.630;2023-05-29T00:29:18;16.80;99.90
4820;DHT22;2424;49.696;6.630;2023-05-29T00:34:43;16.60;99.90
4820;DHT22;2424;49.696;6.630;2023-05-29T00:40:07;16.40;99.90
4820;DHT22;2424;49.696;6.630;2023-05-29T00:45:29;16.30;99.90
4820;DHT22;2424;49.696;6.630;2023-05-29T00:50:53;16.20;99.90
4820;DHT22;2424;49.696;6.630;2023-05-29T00:56:15;16.20;99.90
4820;DHT22;2424;49.696;6.630;2023-05-29T01:01:38;16.30;99.90
4820;DHT22;2424;49.696;6.630;2023-05-29T01:07:03;16.40;99.90
4820;DHT22;2424;49.696;6.630;2023-05-29T01:12:31;16.30;99.90
4820;DHT22;2424;49.696;6.630;2023-05-29T01:18:07;16.40;99.90
4820;DHT22;2424;49.696;6.630;2023-05-29T01:24:06;16.40;99.90
4820;DHT22;2424;49.696;6.630;2023-05-29T01:29:35;16.40;99.90
4820;DHT22;2424;49.696;6.630;2023-05-29T01:34:59;16.40;99.90
4820;DHT22;2424;49.696;6.630;2023-05-29T01:40:21;16.30;99.90
4820;DHT22;2424;49.696;6.630;2023-05-29T01:45:45;16.30;99.90
4820;DHT22;2424;49.696;6.630;2023-05-29T01:51:07;16.00;99.90
4820;DHT22;2424;49.696;6.630;2023-05-29T01:56:29;15.80;99.90
4820;DHT22;2424;49.696;6.630;2023-05-29T02:01:53;15.70;99.90
4820;DHT22;2424;49.696;6.630;2023-05-29T02:07:15;15.60;99.90
4820;DHT22;2424;49.696;6.630;2023-05-29T02:12:37;15.50;99.90
4820;DHT22;2424;49.696;6.630;2023-05-29T02:18:00;15.30;99.90
4820;DHT22;2424;49.696;6.630;2023-05-29T02:23:22;15.30;99.90
4820;DHT22;2424;49.696;6.630;2023-05-29T02:28:45;15.10;99.90
4820;DHT22;2424;49.696;6.630;2023-05-29T02:34:08;15.00;99.90
4820;DHT22;2424;49.696;6.630;2023-05-29T02:39:30;14.90;99.90
4820;DHT22;2424;49.696;6.630;2023-05-29T02:44:52;14.90;99.90
4820;DHT22;2424;49.696;6.630;2023-05-29T02:50:16;14.80;99.90
4820;DHT22;2424;49.696;6.630;2023-05-29T02:55:38;14.90;99.90
4820;DHT22;2424;49.696;6.630;2023-05-29T03:01:00;15.00;99.90
4820;DHT22;2424;49.696;6.630;2023-05-29T03:06:24;15.10;99.90
4820;DHT22;2424;49.696;6.630;2023-05-29T03:11:46;15.20;99.90
4820;DHT22;2424;49.696;6.630;2023-05-29T03:17:10;15.20;99.90
4820;DHT22;2424;49.696;6.630;2023-05-29T03:22:34;15.10;99.90
4820;DHT22;2424;49.696;6.630;2023-05-29T03:27:56;14.90;99.90
4820;DHT22;2424;49.696;6.630;2023-05-29T03:33:19;14.70;99.90
4820;DHT22;2424;49.696;6.630;2023-05-29T03:38:42;14.60;99.90
4820;DHT22;2424;49.696;6.630;2023-05-29T03:44:04;14.40;99.90
4820;DHT22;2424;49.696;6.630;2023-05-29T03:49:26;14.20;99.90
4820;DHT22;2424;49.696;6.630;2023-05-29T03:54:49;14.20;99.90
4820;DHT22;2424;49.696;6.630;2023-05-29T04:00:12;14.20;99.90
4820;DHT22;2424;49.696;6.630;2023-05-29T04:05:34;14.10;99.90
4820;DHT22;2424;49.696;6.630;2023-05-29T04:10:57;14.10;99.90
4820;DHT22;2424;49.696;6.630;2023-05-29T04:16:19;14.00;99.90
4820;DHT22;2424;49.696;6.630;2023-05-29T04:21:41;14.10;99.90
4820;DHT22;2424;49.696;6.630;2023-05-29T04:27:05;14.10;99.90
4820;DHT22;2424;49.696;6.630;2023-05-29T04:32:27;14.30;99.90
4820;DHT22;2424;49.696;6.630;2023-05-29T04:37:49;14.30;99.90
4820;DHT22;2424;49.696;6.630;2023-05-29T04:43:13;14.30;99.90
4820;DHT22;2424;49.696;6.630;2023-05-29T04:48:36;14.40;99.90
4820;DHT22;2424;49.696;6.630;2023-05-29T04:54:01;14.40;99.90
4820;DHT22;2424;49.696;6.630;2023-05-29T04:59:24;14.50;99.90
4820;DHT22;2424;49.696;6.630;2023-05-29T05:04:46;14.50;99.90
4820;DHT22;2424;49.696;6.630;2023-05-29T05:10:09;14.60;99.90
4820;DHT22;2424;49.696;6.630;2023-05-29T05:15:32;14.70;99.90
4820;DHT22;2424;49.696;6.630;2023-05-29T05:20:54;14.70;99.90
4820;DHT22;2424;49.696;6.630;2023-05-29T05:26:16;14.70;99.90
4820;DHT22;2424;49.696;6.630;2023-05-29T05:31:40;14.80;99.90
4820;DHT22;2424;49.696;6.630;2023-05-29T05:37:02;14.80;99.90
4820;DHT22;2424;49.696;6.630;2023-05-29T05:42:24;14.80;99.90
4820;DHT22;2424;49.696;6.630;2023-05-29T05:47:48;14.80;99.90
4820;DHT22;2424;49.696;6.630;2023-05-29T05:53:10;14.90;99.90
4820;DHT22;2424;49.696;6.630;2023-05-29T05:58:32;14.90;99.90
4820;DHT22;2424;49.696;6.630;2023-05-29T06:03:55;15.00;99.90
4820;DHT22;2424;49.696;6.630;2023-05-29T06:09:17;15.10;99.90
4820;DHT22;2424;49.696;6.630;2023-05-29T06:14:39;15.20;99.90
4820;DHT22;2424;49.696;6.630;2023-05-29T06:20:03;15.30;99.90
4820;DHT22;2424;49.696;6.630;2023-05-29T06:25:31;15.30;99.90
4820;DHT22;2424;49.696;6.630;2023-05-29T06:30:53;15.40;99.90
4820;DHT22;2424;49.696;6.630;2023-05-29T06:36:17;15.50;99.90
4820;DHT22;2424;49.696;6.630;2023-05-29T06:41:39;15.50;99.90
4820;DHT22;2424;49.696;6.630;2023-05-29T06:47:01;15.60;99.90
4820;DHT22;2424;49.696;6.630;2023-05-29T06:52:24;15.70;99.90
4820;DHT22;2424;49.696;6.630;2023-05-29T06:57:46;15.80;99.90
4820;DHT22;2424;49.696;6.630;2023-05-29T07:03:08;15.80;99.90
4820;DHT22;2424;49.696;6.630;2023-05-29T07:08:32;16.00;99.90
4820;DHT22;2424;49.696;6.630;2023-05-29T07:13:54;16.10;99.90
4820;DHT22;2424;49.696;6.630;2023-05-29T07:19:16;16.10;99.90
4820;DHT22;2424;49.696;6.630;2023-05-29T07:24:39;16.20;99.90
4820;DHT22;2424;49.696;6.630;2023-05-29T07:30:01;16.40;99.90
4820;DHT22;2424;49.696;6.630;2023-05-29T07:35:23;16.40;99.90
4820;DHT22;2424;49.696;6.630;2023-05-29T07:40:47;16.50;99.90
4820;DHT22;2424;49.696;6.630;2023-05-29T07:46:08;16.70;99.90
4820;DHT22;2424;49.696;6.630;2023-05-29T07:51:31;16.80;99.90
4820;DHT22;2424;49.696;6.630;2023-05-29T07:56:54;16.80;99.90
4820;DHT22;2424;49.696;6.630;2023-05-29T08:02:16;17.00;99.90
4820;DHT22;2424;49.696;6.630;2023-05-29T08:07:38;17.10;99.90
4820;DHT22;2424;49.696;6.630;2023-05-29T08:13:02;17.30;99.90
4820;DHT22;2424;49.696;6.630;2023-05-29T08:18:25;17.30;99.90
4820;DHT22;2424;49.696;6.630;2023-05-29T08:23:47;17.40;99.90
4820;DHT22;2424;49.696;6.630;2023-05-29T08:29:11;17.60;99.90
4820;DHT22;2424;49.696;6.630;2023-05-29T08:34:33;17.60;99.90
4820;DHT22;2424;49.696;6.630;2023-05-29T08:39:55;17.70;99.90
4820;DHT22;2424;49.696;6.630;2023-05-29T08:45:19;17.80;99.90
4820;DHT22;2424;49.696;6.630;2023-05-29T08:50:45;17.90;99.90
4820;DHT22;2424;49.696;6.630;2023-05-29T08:56:10;18.10;99.90
4820;DHT22;2424;49.696;6.630;2023-05-29T09:01:34;18.30;99.90
4820;DHT22;2424;49.696;6.630;2023-05-29T09:06:57;18.50;99.90
4820;DHT22;2424;49.696;6.630;2023-05-29T09:12:20;18.60;99.90
4820;DHT22;2424;49.696;6.630;2023-05-29T09:17:43;18.80;99.90
4820;DHT22;2424;49.696;6.630;2023-05-29T09:23:07;19.00;99.90
4820;DHT22;2424;49.696;6.630;2023-05-29T09:28:30;19.00;99.90
4820;DHT22;2424;49.696;6.630;2023-05-29T09:33:54;19.10;99.90
4820;DHT22;2424;49.696;6.630;2023-05-29T09:39:16;19.20;99.90
4820;DHT22;2424;49.696;6.630;2023-05-29T09:44:40;19.50;99.90
4820;DHT22;2424;49.696;6.630;2023-05-29T09:50:04;19.60;99.90
4820;DHT22;2424;49.696;6.630;2023-05-29T09:55:28;19.70;99.90
4820;DHT22;2424;49.696;6.630;2023-05-29T10:00:51;19.60;99.90
4820;DHT22;2424;49.696;6.630;2023-05-29T10:06:18;19.80;99.90
4820;DHT22;2424;49.696;6.630;2023-05-29T10:11:43;20.00;99.90
4820;DHT22;2424;49.696;6.630;2023-05-29T10:17:07;20.10;99.90
4820;DHT22;2424;49.696;6.630;2023-05-29T10:22:31;20.40;99.90
4820;DHT22;2424;49.696;6.630;2023-05-29T10:27:55;20.40;99.90
4820;DHT22;2424;49.696;6.630;2023-05-29T10:33:29;20.40;99.90
4820;DHT22;2424;49.696;6.630;2023-05-29T10:38:55;20.90;99.90
4820;DHT22;2424;49.696;6.630;2023-05-29T10:44:39;21.30;99.90
4820;DHT22;2424;49.696;6.630;2023-05-29T10:50:05;21.20;99.90
4820;DHT22;2424;49.696;6.630;2023-05-29T10:55:35;21.40;99.90
4820;DHT22;2424;49.696;6.630;2023-05-29T11:00:57;21.20;99.90
4820;DHT22;2424;49.696;6.630;2023-05-29T11:06:20;21.40;99.90
4820;DHT22;2424;49.696;6.630;2023-05-29T11:11:46;21.50;99.90
4820;DHT22;2424;49.696;6.630;2023-05-29T11:17:43;21.50;99.90
4820;DHT22;2424;49.696;6.630;2023-05-29T11:23:06;21.80;99.90
4820;DHT22;2424;49.696;6.630;2023-05-29T11:28:31;21.90;99.90
4820;DHT22;2424;49.696;6.630;2023-05-29T11:33:54;21.90;99.90
4820;DHT22;2424;49.696;6.630;2023-05-29T11:39:21;22.10;99.90
4820;DHT22;2424;49.696;6.630;2023-05-29T11:44:45;22.10;99.90
4820;DHT22;2424;49.696;6.630;2023-05-29T11:50:18;22.10;99.90
4820;DHT22;2424;49.696;6.630;2023-05-29T11:55:40;22.30;99.90
4820;DHT22;2424;49.696;6.630;2023-05-29T12:01:04;22.60;99.90
4820;DHT22;2424;49.696;6.630;2023-05-29T12:06:32;22.70;99.90
4820;DHT22;2424;49.696;6.630;2023-05-29T12:12:01;23.00;99.90
4820;DHT22;2424;49.696;6.630;2023-05-29T12:17:25;22.80;99.90
4820;DHT22;2424;49.696;6.630;2023-05-29T12:22:51;22.80;99.90
4820;DHT22;2424;49.696;6.630;2023-05-29T12:28:16;23.10;99.90
4820;DHT22;2424;49.696;6.630;2023-05-29T12:33:43;23.40;99.90
4820;DHT22;2424;49.696;6.630;2023-05-29T12:39:07;23.10;99.90
4820;DHT22;2424;49.696;6.630;2023-05-29T12:44:30;23.20;99.90
4820;DHT22;2424;49.696;6.630;2023-05-29T12:49:53;23.40;99.90
4820;DHT22;2424;49.696;6.630;2023-05-29T12:55:16;23.60;99.90
4820;DHT22;2424;49.696;6.630;2023-05-29T13:00:39;23.70;99.90
4820;DHT22;2424;49.696;6.630;2023-05-29T13:06:03;23.90;99.90
4820;DHT22;2424;49.696;6.630;2023-05-29T13:11:26;24.00;99.90
4820;DHT22;2424;49.696;6.630;2023-05-29T13:16:48;24.10;99.90
4820;DHT22;2424;49.696;6.630;2023-05-29T13:22:11;24.20;99.90
4820;DHT22;2424;49.696;6.630;2023-05-29T13:27:34;24.30;99.90
4820;DHT22;2424;49.696;6.630;2023-05-29T13:32:56;24.40;99.90
4820;DHT22;2424;49.696;6.630;2023-05-29T13:38:19;24.20;99.90
4820;DHT22;2424;49.696;6.630;2023-05-29T13:43:41;24.40;99.90
4820;DHT22;2424;49.696;6.630;2023-05-29T13:49:03;24.40;99.90
4820;DHT22;2424;49.696;6.630;2023-05-29T13:54:29;24.30;99.90
4820;DHT22;2424;49.696;6.630;2023-05-29T13:59:55;24.50;99.90
4820;DHT22;2424;49.696;6.630;2023-05-29T14:05:19;24.70;99.90
4820;DHT22;2424;49.696;6.630;2023-05-29T14:10:42;24.80;99.90
4820;DHT22;2424;49.696;6.630;2023-05-29T14:16:05;25.00;99.90
4820;DHT22;2424;49.696;6.630;2023-05-29T14:21:27;25.30;99.90
4820;DHT22;2424;49.696;6.630;2023-05-29T14:26:50;25.50;99.90
4820;DHT22;2424;49.696;6.630;2023-05-29T14:32:12;25.00;99.90
4820;DHT22;2424;49.696;6.630;2023-05-29T14:37:34;25.00;99.90
4820;DHT22;2424;49.696;6.630;2023-05-29T14:42:58;25.00;99.90
4820;DHT22;2424;49.696;6.630;2023-05-29T14:48:20;25.10;99.90
4820;DHT22;2424;49.696;6.630;2023-05-29T14:53:42;25.20;99.90
4820;DHT22;2424;49.696;6.630;2023-05-29T14:59:05;25.10;99.90
4820;DHT22;2424;49.696;6.630;2023-05-29T15:04:27;25.30;99.90
4820;DHT22;2424;49.696;6.630;2023-05-29T15:09:49;25.40;99.90
4820;DHT22;2424;49.696;6.630;2023-05-29T15:15:13;25.50;99.60
4820;DHT22;2424;49.696;6.630;2023-05-29T15:20:35;25.30;99.70
4820;DHT22;2424;49.696;6.630;2023-05-29T15:25:57;25.70;99.90
4820;DHT22;2424;49.696;6.630;2023-05-29T15:31:21;25.90;99.90
4820;DHT22;2424;49.696;6.630;2023-05-29T15:36:43;26.10;99.90
4820;DHT22;2424;49.696;6.630;2023-05-29T15:42:06;26.20;99.90
4820;DHT22;2424;49.696;6.630;2023-05-29T15:47:32;26.30;99.90
4820;DHT22;2424;49.696;6.630;2023-05-29T15:52:54;26.30;99.80
4820;DHT22;2424;49.696;6.630;2023-05-29T15:58:16;26.30;99.90
4820;DHT22;2424;49.696;6.630;2023-05-29T16:03:39;26.30;99.80
4820;DHT22;2424;49.696;6.630;2023-05-29T16:09:01;26.40;99.90
4820;DHT22;2424;49.696;6.630;2023-05-29T16:14:24;26.10;98.90
4820;DHT22;2424;49.696;6.630;2023-05-29T16:19:47;25.90;99.00
4820;DHT22;2424;49.696;6.630;2023-05-29T16:25:10;25.70;99.90
4820;DHT22;2424;49.696;6.630;2023-05-29T16:30:32;25.90;99.90
4820;DHT22;2424;49.696;6.630;2023-05-29T16:35:55;25.80;98.50
4820;DHT22;2424;49.696;6.630;2023-05-29T16:41:17;25.90;99.30
4820;DHT22;2424;49.696;6.630;2023-05-29T16:46:39;25.80;99.90
4820;DHT22;2424;49.696;6.630;2023-05-29T16:52:03;25.70;98.70
4820;DHT22;2424;49.696;6.630;2023-05-29T16:57:25;25.60;99.90
4820;DHT22;2424;49.696;6.630;2023-05-29T17:02:47;25.50;98.70
4820;DHT22;2424;49.696;6.630;2023-05-29T17:08:12;25.50;99.10
4820;DHT22;2424;49.696;6.630;2023-05-29T17:13:34;25.10;98.50
4820;DHT22;2424;49.696;6.630;2023-05-29T17:18:56;25.40;99.70
4820;DHT22;2424;49.696;6.630;2023-05-29T17:24:20;25.20;99.40
4820;DHT22;2424;49.696;6.630;2023-05-29T17:29:42;25.00;99.70
4820;DHT22;2424;49.696;6.630;2023-05-29T17:35:04;24.80;99.80
4820;DHT22;2424;49.696;6.630;2023-05-29T17:40:28;24.70;99.90
4820;DHT22;2424;49.696;6.630;2023-05-29T17:45:50;24.50;99.90
4820;DHT22;2424;49.696;6.630;2023-05-29T17:51:12;24.10;99.90
4820;DHT22;2424;49.696;6.630;2023-05-29T17:56:36;24.00;99.90
4820;DHT22;2424;49.696;6.630;2023-05-29T18:01:58;23.80;99.90
4820;DHT22;2424;49.696;6.630;2023-05-29T18:07:20;23.50;99.90
4820;DHT22;2424;49.696;6.630;2023-05-29T18:12:44;23.40;99.90
4820;DHT22;2424;49.696;6.630;2023-05-29T18:18:06;23.40;99.90
4820;DHT22;2424;49.696;6.630;2023-05-29T18:23:28;23.20;99.90
4820;DHT22;2424;49.696;6.630;2023-05-29T18:28:51;23.00;99.90
4820;DHT22;2424;49.696;6.630;2023-05-29T18:34:15;22.80;99.90
4820;DHT22;2424;49.696;6.630;2023-05-29T18:39:37;22.60;99.90
4820;DHT22;2424;49.696;6.630;2023-05-29T18:45:00;22.30;99.90
4820;DHT22;2424;49.696;6.630;2023-05-29T18:50:22;22.00;99.90
4820;DHT22;2424;49.696;6.630;2023-05-29T18:55:44;21.90;99.90
4820;DHT22;2424;49.696;6.630;2023-05-29T19:01:08;21.80;99.90
4820;DHT22;2424;49.696;6.630;2023-05-29T19:06:30;21.60;99.90
4820;DHT22;2424;49.696;6.630;2023-05-29T19:11:52;21.40;99.90
4820;DHT22;2424;49.696;6.630;2023-05-29T19:17:15;21.30;99.90
4820;DHT22;2424;49.696;6.630;2023-05-29T19:22:39;21.00;99.90
4820;DHT22;2424;49.696;6.630;2023-05-29T19:28:02;21.00;99.90
4820;DHT22;2424;49.696;6.630;2023-05-29T19:33:26;20.80;99.90
4820;DHT22;2424;49.696;6.630;2023-05-29T19:38:48;20.70;99.90
4820;DHT22;2424;49.696;6.630;2023-05-29T19:44:11;20.50;99.90
4820;DHT22;2424;49.696;6.630;2023-05-29T19:49:35;20.30;99.90
4820;DHT22;2424;49.696;6.630;2023-05-29T19:54:57;20.10;99.90
4820;DHT22;2424;49.696;6.630;2023-05-29T20:00:20;20.00;99.90
4820;DHT22;2424;49.696;6.630;2023-05-29T20:05:44;19.90;99.90
4820;DHT22;2424;49.696;6.630;2023-05-29T20:11:06;19.70;99.90
4820;DHT22;2424;49.696;6.630;2023-05-29T20:16:28;19.50;99.90
4820;DHT22;2424;49.696;6.630;2023-05-29T20:21:54;19.40;99.90
4820;DHT22;2424;49.696;6.630;2023-05-29T20:27:16;19.30;99.90
4820;DHT22;2424;49.696;6.630;2023-05-29T20:32:38;19.20;99.90
4820;DHT22;2424;49.696;6.630;2023-05-29T20:38:02;19.00;99.90
4820;DHT22;2424;49.696;6.630;2023-05-29T20:43:25;18.90;99.90
4820;DHT22;2424;49.696;6.630;2023-05-29T20:48:50;18.90;99.90
4820;DHT22;2424;49.696;6.630;2023-05-29T20:54:14;18.80;99.90
4820;DHT22;2424;49.696;6.630;2023-05-29T20:59:36;18.80;99.90
4820;DHT22;2424;49.696;6.630;2023-05-29T21:04:58;18.70;99.90
4820;DHT22;2424;49.696;6.630;2023-05-29T21:10:22;18.60;99.90
4820;DHT22;2424;49.696;6.630;2023-05-29T21:15:44;18.50;99.90
4820;DHT22;2424;49.696;6.630;2023-05-29T21:21:06;18.40;99.90
4820;DHT22;2424;49.696;6.630;2023-05-29T21:26:30;18.30;99.90
4820;DHT22;2424;49.696;6.630;2023-05-29T21:31:52;18.20;99.90
4820;DHT22;2424;49.696;6.630;2023-05-29T21:37:14;18.20;99.90
4820;DHT22;2424;49.696;6.630;2023-05-29T21:42:37;18.10;99.90
4820;DHT22;2424;49.696;6.630;2023-05-29T21:47:59;18.10;99.90
4820;DHT22;2424;49.696;6.630;2023-05-29T21:53:22;17.90;99.90
4820;DHT22;2424;49.696;6.630;2023-05-29T21:58:45;18.00;99.90
4820;DHT22;2424;49.696;6.630;2023-05-29T22:04:08;17.90;99.90
4820;DHT22;2424;49.696;6.630;2023-05-29T22:09:30;17.80;99.90
4820;DHT22;2424;49.696;6.630;2023-05-29T22:14:54;17.80;99.90
4820;DHT22;2424;49.696;6.630;2023-05-29T22:20:16;17.70;99.90
4820;DHT22;2424;49.696;6.630;2023-05-29T22:25:39;17.60;99.90
4820;DHT22;2424;49.696;6.630;2023-05-29T22:31:05;17.50;99.90
4820;DHT22;2424;49.696;6.630;2023-05-29T22:36:28;17.50;99.90
4820;DHT22;2424;49.696;6.630;2023-05-29T22:41:50;17.40;99.90
4820;DHT22;2424;49.696;6.630;2023-05-29T22:47:13;17.40;99.90
4820;DHT22;2424;49.696;6.630;2023-05-29T22:52:36;17.30;99.90
4820;DHT22;2424;49.696;6.630;2023-05-29T22:57:58;17.20;99.90
4820;DHT22;2424;49.696;6.630;2023-05-29T23:03:22;17.20;99.90
4820;DHT22;2424;49.696;6.630;2023-05-29T23:08:45;17.10;99.90
4820;DHT22;2424;49.696;6.630;2023-05-29T23:14:08;17.00;99.90
4820;DHT22;2424;49.696;6.630;2023-05-29T23:19:31;17.00;99.90
4820;DHT22;2424;49.696;6.630;2023-05-29T23:24:55;16.90;99.90
4820;DHT22;2424;49.696;6.630;2023-05-29T23:30:19;16.90;99.90
4820;DHT22;2424;49.696;6.630;2023-05-29T23:35:43;16.80;99.90
4820;DHT22;2424;49.696;6.630;2023-05-29T23:41:05;16.60;99.90
4820;DHT22;2424;49.696;6.630;2023-05-29T23:46:27;16.60;99.90
4820;DHT22;2424;49.696;6.630;2023-05-29T23:51:51;16.60;99.90
4820;DHT22;2424;49.696;6.630;2023-05-29T23:57:13;16.60;99.90
